sensor_id;sensor_type;location;lat;lon;timestamp;temperature;humidity
13960;DHT22;7052;51.050;3.716;2023-02-26T00:01:25;3.30;99.10
13960;DHT22;7052;51.050;3.716;2023-02-26T00:03:55;3.30;99.10
13960;DHT22;7052;51.050;3.716;2023-02-26T00:06:23;3.30;99.30
13960;DHT22;7052;51.050;3.716;2023-02-26T00:08:50;3.30;99.50
13960;DHT22;7052;51.050;3.716;2023-02-26T00:11:17;3.30;99.60
13960;DHT22;7052;51.050;3.716;2023-02-26T00:13:45;3.20;99.70
13960;DHT22;7052;51.050;3.716;2023-02-26T00:16:22;3.20;99.80
13960;DHT22;7052;51.050;3.716;2023-02-26T00:18:50;3.20;99.90
13960;DHT22;7052;51.050;3.716;2023-02-26T00:21:18;3.20;99.90
13960;DHT22;7052;51.050;3.716;2023-02-26T00:23:47;3.20;99.90
13960;DHT22;7052;51.050;3.716;2023-02-26T00:26:14;3.10;99.90
13960;DHT22;7052;51.050;3.716;2023-02-26T00:28:41;3.10;99.90
13960;DHT22;7052;51.050;3.716;2023-02-26T00:31:09;3.10;99.90
13960;DHT22;7052;51.050;3.716;2023-02-26T00:33:38;3.10;99.90
13960;DHT22;7052;51.050;3.716;2023-02-26T00:36:16;3.10;99.90
13960;DHT22;7052;51.050;3.716;2023-02-26T00:38:48;3.10;99.90
13960;DHT22;7052;51.050;3.716;2023-02-26T00:41:19;3.00;99.90
13960;DHT22;7052;51.050;3.716;2023-02-26T00:43:46;3.00;99.90
13960;DHT22;7052;51.050;3.716;2023-02-26T00:46:20;3.00;99.90
13960;DHT22;7052;51.050;3.716;2023-02-26T00:49:00;3.00;99.90
13960;DHT22;7052;51.050;3.716;2023-02-26T00:51:31;3.00;99.90
13960;DHT22;7052;51.050;3.716;2023-02-26T00:54:08;3.00;99.90
13960;DHT22;7052;51.050;3.716;2023-02-26T00:56:37;2.90;99.90
13960;DHT22;7052;51.050;3.716;2023-02-26T00:59:04;2.90;99.90
13960;DHT22;7052;51.050;3.716;2023-02-26T01:01:31;2.90;99.90
13960;DHT22;7052;51.050;3.716;2023-02-26T01:03:59;2.90;99.90
13960;DHT22;7052;51.050;3.716;2023-02-26T01:06:31;2.80;99.90
13960;DHT22;7052;51.050;3.716;2023-02-26T01:09:04;2.80;99.90
13960;DHT22;7052;51.050;3.716;2023-02-26T01:11:35;2.80;99.90
13960;DHT22;7052;51.050;3.716;2023-02-26T01:14:03;2.80;99.90
13960;DHT22;7052;51.050;3.716;2023-02-26T01:16:37;2.80;99.90
13960;DHT22;7052;51.050;3.716;2023-02-26T01:19:15;2.80;99.90
13960;DHT22;7052;51.050;3.716;2023-02-26T01:22:03;2.80;99.90
13960;DHT22;7052;51.050;3.716;2023-02-26T01:24:33;2.80;99.90
13960;DHT22;7052;51.050;3.716;2023-02-26T01:27:01;2.90;99.90
13960;DHT22;7052;51.050;3.716;2023-02-26T01:29:28;2.90;99.90
13960;DHT22;7052;51.050;3.716;2023-02-26T01:31:59;3.00;99.90
13960;DHT22;7052;51.050;3.716;2023-02-26T01:34:34;3.10;99.90
13960;DHT22;7052;51.050;3.716;2023-02-26T01:37:09;3.10;99.90
13960;DHT22;7052;51.050;3.716;2023-02-26T01:39:41;3.20;99.90
13960;DHT22;7052;51.050;3.716;2023-02-26T01:42:12;3.20;99.90
13960;DHT22;7052;51.050;3.716;2023-02-26T01:44:49;3.30;99.90
13960;DHT22;7052;51.050;3.716;2023-02-26T01:47:20;3.30;99.90
13960;DHT22;7052;51.050;3.716;2023-02-26T01:49:51;3.40;99.90
13960;DHT22;7052;51.050;3.716;2023-02-26T01:55:28;3.40;99.90
13960;DHT22;7052;51.050;3.716;2023-02-26T01:57:57;3.40;99.90
13960;DHT22;7052;51.050;3.716;2023-02-26T02:00:25;3.50;99.90
13960;DHT22;7052;51.050;3.716;2023-02-26T02:02:52;3.50;99.90
13960;DHT22;7052;51.050;3.716;2023-02-26T02:05:23;3.50;99.90
13960;DHT22;7052;51.050;3.716;2023-02-26T02:07:52;3.50;99.90
13960;DHT22;7052;51.050;3.716;2023-02-26T02:10:20;3.60;99.90
13960;DHT22;7052;51.050;3.716;2023-02-26T02:12:59;3.60;99.90
13960;DHT22;7052;51.050;3.716;2023-02-26T02:15:35;3.60;99.90
13960;DHT22;7052;51.050;3.716;2023-02-26T02:18:11;3.60;99.90
13960;DHT22;7052;51.050;3.716;2023-02-26T02:20:56;3.60;99.90
13960;DHT22;7052;51.050;3.716;2023-02-26T02:23:29;3.60;99.90
13960;DHT22;7052;51.050;3.716;2023-02-26T02:26:23;3.60;99.90
13960;DHT22;7052;51.050;3.716;2023-02-26T02:29:13;3.70;99.90
13960;DHT22;7052;51.050;3.716;2023-02-26T02:31:50;3.70;99.90
13960;DHT22;7052;51.050;3.716;2023-02-26T02:34:22;3.70;99.90
13960;DHT22;7052;51.050;3.716;2023-02-26T02:36:53;3.70;99.90
13960;DHT22;7052;51.050;3.716;2023-02-26T02:39:25;3.70;99.90
13960;DHT22;7052;51.050;3.716;2023-02-26T02:41:58;3.80;99.90
13960;DHT22;7052;51.050;3.716;2023-02-26T02:44:27;3.70;99.90
13960;DHT22;7052;51.050;3.716;2023-02-26T02:46:57;3.80;99.90
13960;DHT22;7052;51.050;3.716;2023-02-26T02:49:28;3.80;99.90
13960;DHT22;7052;51.050;3.716;2023-02-26T02:52:03;3.80;99.90
13960;DHT22;7052;51.050;3.716;2023-02-26T02:54:35;3.80;99.90
13960;DHT22;7052;51.050;3.716;2023-02-26T02:57:08;3.90;99.90
13960;DHT22;7052;51.050;3.716;2023-02-26T02:59:40;3.80;99.90
13960;DHT22;7052;51.050;3.716;2023-02-26T03:02:13;3.90;99.90
13960;DHT22;7052;51.050;3.716;2023-02-26T03:04:41;4.00;99.90
13960;DHT22;7052;51.050;3.716;2023-02-26T03:07:09;4.00;99.40
13960;DHT22;7052;51.050;3.716;2023-02-26T03:09:36;4.10;99.10
13960;DHT22;7052;51.050;3.716;2023-02-26T03:12:05;4.20;97.80
13960;DHT22;7052;51.050;3.716;2023-02-26T03:14:32;4.30;97.20
13960;DHT22;7052;51.050;3.716;2023-02-26T03:17:13;4.30;96.70
13960;DHT22;7052;51.050;3.716;2023-02-26T03:19:50;4.30;96.70
13960;DHT22;7052;51.050;3.716;2023-02-26T03:22:28;4.40;96.60
13960;DHT22;7052;51.050;3.716;2023-02-26T03:25:02;4.40;96.80
13960;DHT22;7052;51.050;3.716;2023-02-26T03:27:34;4.40;96.80
13960;DHT22;7052;51.050;3.716;2023-02-26T03:30:04;4.40;96.90
13960;DHT22;7052;51.050;3.716;2023-02-26T03:32:40;4.30;97.10
13960;DHT22;7052;51.050;3.716;2023-02-26T03:35:12;4.20;97.10
13960;DHT22;7052;51.050;3.716;2023-02-26T03:37:44;4.20;97.10
13960;DHT22;7052;51.050;3.716;2023-02-26T03:40:15;4.10;97.10
13960;DHT22;7052;51.050;3.716;2023-02-26T03:42:45;4.10;97.00
13960;DHT22;7052;51.050;3.716;2023-02-26T03:45:16;4.10;97.10
13960;DHT22;7052;51.050;3.716;2023-02-26T03:47:48;4.00;97.40
13960;DHT22;7052;51.050;3.716;2023-02-26T03:50:22;3.90;97.60
13960;DHT22;7052;51.050;3.716;2023-02-26T03:52:53;3.80;97.80
13960;DHT22;7052;51.050;3.716;2023-02-26T03:55:24;3.70;98.10
13960;DHT22;7052;51.050;3.716;2023-02-26T03:57:54;3.60;98.00
13960;DHT22;7052;51.050;3.716;2023-02-26T04:00:21;3.60;97.60
13960;DHT22;7052;51.050;3.716;2023-02-26T04:02:54;3.60;97.40
13960;DHT22;7052;51.050;3.716;2023-02-26T04:05:25;3.50;97.40
13960;DHT22;7052;51.050;3.716;2023-02-26T04:07:53;3.40;97.30
13960;DHT22;7052;51.050;3.716;2023-02-26T04:10:24;3.40;96.60
13960;DHT22;7052;51.050;3.716;2023-02-26T04:12:53;3.40;95.30
13960;DHT22;7052;51.050;3.716;2023-02-26T04:15:20;3.40;95.00
13960;DHT22;7052;51.050;3.716;2023-02-26T04:17:47;3.30;94.30
13960;DHT22;7052;51.050;3.716;2023-02-26T04:20:15;3.30;93.80
13960;DHT22;7052;51.050;3.716;2023-02-26T04:22:42;3.30;93.70
13960;DHT22;7052;51.050;3.716;2023-02-26T04:25:09;3.20;93.60
13960;DHT22;7052;51.050;3.716;2023-02-26T04:27:36;3.20;93.70
13960;DHT22;7052;51.050;3.716;2023-02-26T04:30:03;3.20;93.20
13960;DHT22;7052;51.050;3.716;2023-02-26T04:32:30;3.10;93.20
13960;DHT22;7052;51.050;3.716;2023-02-26T04:34:57;3.00;93.30
13960;DHT22;7052;51.050;3.716;2023-02-26T04:37:25;3.00;93.10
13960;DHT22;7052;51.050;3.716;2023-02-26T04:39:52;3.00;93.00
13960;DHT22;7052;51.050;3.716;2023-02-26T04:42:19;3.00;92.80
13960;DHT22;7052;51.050;3.716;2023-02-26T04:44:46;3.00;92.80
13960;DHT22;7052;51.050;3.716;2023-02-26T04:47:13;2.90;93.00
13960;DHT22;7052;51.050;3.716;2023-02-26T04:49:39;2.90;93.00
13960;DHT22;7052;51.050;3.716;2023-02-26T04:52:06;2.80;93.00
13960;DHT22;7052;51.050;3.716;2023-02-26T04:54:34;2.80;92.90
13960;DHT22;7052;51.050;3.716;2023-02-26T04:57:02;2.80;93.00
13960;DHT22;7052;51.050;3.716;2023-02-26T04:59:29;2.80;93.20
13960;DHT22;7052;51.050;3.716;2023-02-26T05:01:56;2.70;93.40
13960;DHT22;7052;51.050;3.716;2023-02-26T05:04:23;2.70;93.90
13960;DHT22;7052;51.050;3.716;2023-02-26T05:06:50;2.70;93.70
13960;DHT22;7052;51.050;3.716;2023-02-26T05:09:16;2.70;93.50
13960;DHT22;7052;51.050;3.716;2023-02-26T05:11:45;2.60;93.60
13960;DHT22;7052;51.050;3.716;2023-02-26T05:14:12;2.60;93.70
13960;DHT22;7052;51.050;3.716;2023-02-26T05:16:39;2.60;93.70
13960;DHT22;7052;51.050;3.716;2023-02-26T05:19:06;2.60;93.70
13960;DHT22;7052;51.050;3.716;2023-02-26T05:21:33;2.60;93.60
13960;DHT22;7052;51.050;3.716;2023-02-26T05:23:59;2.60;93.60
13960;DHT22;7052;51.050;3.716;2023-02-26T05:26:26;2.60;93.70
13960;DHT22;7052;51.050;3.716;2023-02-26T05:28:56;2.50;93.70
13960;DHT22;7052;51.050;3.716;2023-02-26T05:31:23;2.50;93.70
13960;DHT22;7052;51.050;3.716;2023-02-26T05:33:51;2.40;93.50
13960;DHT22;7052;51.050;3.716;2023-02-26T05:36:18;2.50;93.40
13960;DHT22;7052;51.050;3.716;2023-02-26T05:38:44;2.40;93.20
13960;DHT22;7052;51.050;3.716;2023-02-26T05:41:12;2.40;93.20
13960;DHT22;7052;51.050;3.716;2023-02-26T05:43:39;2.40;93.20
13960;DHT22;7052;51.050;3.716;2023-02-26T05:46:07;2.40;93.10
13960;DHT22;7052;51.050;3.716;2023-02-26T05:48:36;2.40;92.90
13960;DHT22;7052;51.050;3.716;2023-02-26T05:51:02;2.40;92.90
13960;DHT22;7052;51.050;3.716;2023-02-26T05:53:29;2.40;93.00
13960;DHT22;7052;51.050;3.716;2023-02-26T05:55:56;2.30;93.10
13960;DHT22;7052;51.050;3.716;2023-02-26T05:58:23;2.30;93.30
13960;DHT22;7052;51.050;3.716;2023-02-26T06:00:50;2.30;93.10
13960;DHT22;7052;51.050;3.716;2023-02-26T06:03:18;2.30;92.90
13960;DHT22;7052;51.050;3.716;2023-02-26T06:05:45;2.30;92.70
13960;DHT22;7052;51.050;3.716;2023-02-26T06:08:12;2.20;92.90
13960;DHT22;7052;51.050;3.716;2023-02-26T06:10:40;2.30;92.40
13960;DHT22;7052;51.050;3.716;2023-02-26T06:13:07;2.30;92.10
13960;DHT22;7052;51.050;3.716;2023-02-26T06:15:34;2.20;92.50
13960;DHT22;7052;51.050;3.716;2023-02-26T06:18:01;2.30;92.20
13960;DHT22;7052;51.050;3.716;2023-02-26T06:20:29;2.20;92.20
13960;DHT22;7052;51.050;3.716;2023-02-26T06:22:56;2.20;92.40
13960;DHT22;7052;51.050;3.716;2023-02-26T06:25:23;2.20;92.40
13960;DHT22;7052;51.050;3.716;2023-02-26T06:27:50;2.20;92.20
13960;DHT22;7052;51.050;3.716;2023-02-26T06:30:17;2.20;92.20
13960;DHT22;7052;51.050;3.716;2023-02-26T06:32:44;2.10;92.20
13960;DHT22;7052;51.050;3.716;2023-02-26T06:35:11;2.10;92.60
13960;DHT22;7052;51.050;3.716;2023-02-26T06:37:39;2.10;92.70
13960;DHT22;7052;51.050;3.716;2023-02-26T06:40:07;2.00;92.60
13960;DHT22;7052;51.050;3.716;2023-02-26T06:42:36;2.00;92.60
13960;DHT22;7052;51.050;3.716;2023-02-26T06:45:04;2.00;92.60
13960;DHT22;7052;51.050;3.716;2023-02-26T06:47:31;1.90;92.60
13960;DHT22;7052;51.050;3.716;2023-02-26T06:49:59;2.00;92.50
13960;DHT22;7052;51.050;3.716;2023-02-26T06:52:27;1.90;92.40
13960;DHT22;7052;51.050;3.716;2023-02-26T06:54:55;1.90;92.50
13960;DHT22;7052;51.050;3.716;2023-02-26T06:57:22;1.90;92.60
13960;DHT22;7052;51.050;3.716;2023-02-26T06:59:49;1.90;92.50
13960;DHT22;7052;51.050;3.716;2023-02-26T07:02:17;1.90;92.50
13960;DHT22;7052;51.050;3.716;2023-02-26T07:04:44;1.90;92.40
13960;DHT22;7052;51.050;3.716;2023-02-26T07:07:12;1.90;92.30
13960;DHT22;7052;51.050;3.716;2023-02-26T07:09:39;2.00;92.20
13960;DHT22;7052;51.050;3.716;2023-02-26T07:12:07;1.90;92.00
13960;DHT22;7052;51.050;3.716;2023-02-26T07:14:34;1.90;92.10
13960;DHT22;7052;51.050;3.716;2023-02-26T07:17:01;2.00;91.80
13960;DHT22;7052;51.050;3.716;2023-02-26T07:19:29;2.00;91.80
13960;DHT22;7052;51.050;3.716;2023-02-26T07:21:56;2.00;91.90
13960;DHT22;7052;51.050;3.716;2023-02-26T07:24:23;2.00;91.90
13960;DHT22;7052;51.050;3.716;2023-02-26T07:26:50;2.00;92.10
13960;DHT22;7052;51.050;3.716;2023-02-26T07:29:18;2.10;91.60
13960;DHT22;7052;51.050;3.716;2023-02-26T07:31:45;2.10;91.30
13960;DHT22;7052;51.050;3.716;2023-02-26T07:34:12;2.10;91.20
13960;DHT22;7052;51.050;3.716;2023-02-26T07:36:39;2.10;91.30
13960;DHT22;7052;51.050;3.716;2023-02-26T07:39:06;2.20;91.20
13960;DHT22;7052;51.050;3.716;2023-02-26T07:41:32;2.30;91.00
13960;DHT22;7052;51.050;3.716;2023-02-26T07:43:59;2.30;90.80
13960;DHT22;7052;51.050;3.716;2023-02-26T07:46:28;2.40;90.20
13960;DHT22;7052;51.050;3.716;2023-02-26T07:48:54;2.50;90.00
13960;DHT22;7052;51.050;3.716;2023-02-26T07:51:21;2.50;89.40
13960;DHT22;7052;51.050;3.716;2023-02-26T07:53:48;2.60;89.00
13960;DHT22;7052;51.050;3.716;2023-02-26T07:56:15;2.60;87.90
13960;DHT22;7052;51.050;3.716;2023-02-26T07:58:42;2.70;87.50
13960;DHT22;7052;51.050;3.716;2023-02-26T08:01:08;2.80;86.00
13960;DHT22;7052;51.050;3.716;2023-02-26T08:03:37;2.80;85.10
13960;DHT22;7052;51.050;3.716;2023-02-26T08:06:04;2.90;84.50
13960;DHT22;7052;51.050;3.716;2023-02-26T08:08:33;2.90;83.10
13960;DHT22;7052;51.050;3.716;2023-02-26T08:11:00;2.90;81.10
13960;DHT22;7052;51.050;3.716;2023-02-26T08:13:27;3.10;78.20
13960;DHT22;7052;51.050;3.716;2023-02-26T08:15:54;3.20;76.80
13960;DHT22;7052;51.050;3.716;2023-02-26T08:18:21;3.20;77.00
13960;DHT22;7052;51.050;3.716;2023-02-26T08:20:51;3.30;75.80
13960;DHT22;7052;51.050;3.716;2023-02-26T08:23:18;3.30;74.30
13960;DHT22;7052;51.050;3.716;2023-02-26T08:25:46;3.40;74.30
13960;DHT22;7052;51.050;3.716;2023-02-26T08:28:13;3.40;73.40
13960;DHT22;7052;51.050;3.716;2023-02-26T08:30:40;3.50;73.30
13960;DHT22;7052;51.050;3.716;2023-02-26T08:33:07;3.50;72.20
13960;DHT22;7052;51.050;3.716;2023-02-26T08:35:33;3.50;71.50
13960;DHT22;7052;51.050;3.716;2023-02-26T08:38:02;3.60;71.60
13960;DHT22;7052;51.050;3.716;2023-02-26T08:40:28;3.70;70.00
13960;DHT22;7052;51.050;3.716;2023-02-26T08:42:55;3.80;67.90
13960;DHT22;7052;51.050;3.716;2023-02-26T08:45:22;3.80;68.50
13960;DHT22;7052;51.050;3.716;2023-02-26T08:47:49;3.90;65.70
13960;DHT22;7052;51.050;3.716;2023-02-26T08:50:18;4.00;64.60
13960;DHT22;7052;51.050;3.716;2023-02-26T08:52:46;3.90;64.60
13960;DHT22;7052;51.050;3.716;2023-02-26T08:55:16;4.00;63.50
13960;DHT22;7052;51.050;3.716;2023-02-26T08:57:43;4.10;61.70
13960;DHT22;7052;51.050;3.716;2023-02-26T09:00:11;4.10;59.70
13960;DHT22;7052;51.050;3.716;2023-02-26T09:02:41;4.20;58.30
13960;DHT22;7052;51.050;3.716;2023-02-26T09:05:08;4.20;57.70
13960;DHT22;7052;51.050;3.716;2023-02-26T09:07:36;4.30;56.70
13960;DHT22;7052;51.050;3.716;2023-02-26T09:10:04;4.30;56.70
13960;DHT22;7052;51.050;3.716;2023-02-26T09:12:33;4.30;56.50
13960;DHT22;7052;51.050;3.716;2023-02-26T09:15:02;4.30;56.90
13960;DHT22;7052;51.050;3.716;2023-02-26T09:17:29;4.40;55.60
13960;DHT22;7052;51.050;3.716;2023-02-26T09:19:56;4.40;54.10
13960;DHT22;7052;51.050;3.716;2023-02-26T09:22:23;4.40;54.00
13960;DHT22;7052;51.050;3.716;2023-02-26T09:24:50;4.50;53.20
13960;DHT22;7052;51.050;3.716;2023-02-26T09:27:19;4.50;53.30
13960;DHT22;7052;51.050;3.716;2023-02-26T09:29:47;4.50;54.30
13960;DHT22;7052;51.050;3.716;2023-02-26T09:32:14;4.50;52.60
13960;DHT22;7052;51.050;3.716;2023-02-26T09:34:41;4.50;52.70
13960;DHT22;7052;51.050;3.716;2023-02-26T09:37:09;4.60;50.30
13960;DHT22;7052;51.050;3.716;2023-02-26T09:39:35;4.70;49.90
13960;DHT22;7052;51.050;3.716;2023-02-26T09:42:08;4.70;49.00
13960;DHT22;7052;51.050;3.716;2023-02-26T09:44:37;4.70;48.10
13960;DHT22;7052;51.050;3.716;2023-02-26T09:47:12;4.80;48.50
13960;DHT22;7052;51.050;3.716;2023-02-26T09:49:53;4.80;48.90
13960;DHT22;7052;51.050;3.716;2023-02-26T09:52:25;4.90;48.70
13960;DHT22;7052;51.050;3.716;2023-02-26T09:54:55;4.90;47.20
13960;DHT22;7052;51.050;3.716;2023-02-26T09:57:28;4.80;48.30
13960;DHT22;7052;51.050;3.716;2023-02-26T09:59:56;4.90;48.00
13960;DHT22;7052;51.050;3.716;2023-02-26T10:02:32;4.90;48.60
13960;DHT22;7052;51.050;3.716;2023-02-26T10:05:13;4.90;48.90
13960;DHT22;7052;51.050;3.716;2023-02-26T10:07:46;4.90;48.90
13960;DHT22;7052;51.050;3.716;2023-02-26T10:10:19;4.90;48.80
13960;DHT22;7052;51.050;3.716;2023-02-26T10:12:49;4.90;48.70
13960;DHT22;7052;51.050;3.716;2023-02-26T10:15:20;4.90;49.30
13960;DHT22;7052;51.050;3.716;2023-02-26T10:17:59;5.10;48.70
13960;DHT22;7052;51.050;3.716;2023-02-26T10:20:31;5.10;48.30
13960;DHT22;7052;51.050;3.716;2023-02-26T10:23:03;5.20;47.30
13960;DHT22;7052;51.050;3.716;2023-02-26T10:25:35;5.10;46.60
13960;DHT22;7052;51.050;3.716;2023-02-26T10:28:15;5.20;46.30
13960;DHT22;7052;51.050;3.716;2023-02-26T10:30:49;5.20;46.60
13960;DHT22;7052;51.050;3.716;2023-02-26T10:33:34;5.30;46.90
13960;DHT22;7052;51.050;3.716;2023-02-26T10:36:11;5.30;46.60
13960;DHT22;7052;51.050;3.716;2023-02-26T10:38:50;5.30;47.10
13960;DHT22;7052;51.050;3.716;2023-02-26T10:41:22;5.30;46.10
13960;DHT22;7052;51.050;3.716;2023-02-26T10:43:57;5.30;45.50
13960;DHT22;7052;51.050;3.716;2023-02-26T10:46:33;5.30;45.80
13960;DHT22;7052;51.050;3.716;2023-02-26T10:49:32;5.30;45.40
13960;DHT22;7052;51.050;3.716;2023-02-26T10:52:13;5.50;46.20
13960;DHT22;7052;51.050;3.716;2023-02-26T10:54:53;5.50;46.10
13960;DHT22;7052;51.050;3.716;2023-02-26T10:57:26;5.40;46.50
13960;DHT22;7052;51.050;3.716;2023-02-26T11:00:03;5.60;45.90
13960;DHT22;7052;51.050;3.716;2023-02-26T11:02:35;5.60;44.90
13960;DHT22;7052;51.050;3.716;2023-02-26T11:05:12;5.70;45.00
13960;DHT22;7052;51.050;3.716;2023-02-26T11:07:40;5.70;44.40
13960;DHT22;7052;51.050;3.716;2023-02-26T11:10:14;5.70;44.60
13960;DHT22;7052;51.050;3.716;2023-02-26T11:12:41;5.80;45.10
13960;DHT22;7052;51.050;3.716;2023-02-26T11:15:12;5.80;45.20
13960;DHT22;7052;51.050;3.716;2023-02-26T11:17:40;5.80;44.90
13960;DHT22;7052;51.050;3.716;2023-02-26T11:20:17;5.80;43.90
13960;DHT22;7052;51.050;3.716;2023-02-26T11:22:47;5.80;41.90
13960;DHT22;7052;51.050;3.716;2023-02-26T11:25:17;6.00;41.90
13960;DHT22;7052;51.050;3.716;2023-02-26T11:27:48;5.80;42.50
13960;DHT22;7052;51.050;3.716;2023-02-26T11:30:18;5.80;43.40
13960;DHT22;7052;51.050;3.716;2023-02-26T11:32:50;5.80;43.00
13960;DHT22;7052;51.050;3.716;2023-02-26T11:35:22;5.80;42.90
13960;DHT22;7052;51.050;3.716;2023-02-26T11:37:53;5.80;41.20
13960;DHT22;7052;51.050;3.716;2023-02-26T11:40:25;5.90;40.50
13960;DHT22;7052;51.050;3.716;2023-02-26T11:42:58;5.90;40.90
13960;DHT22;7052;51.050;3.716;2023-02-26T11:45:26;6.00;41.10
13960;DHT22;7052;51.050;3.716;2023-02-26T11:48:01;6.00;41.40
13960;DHT22;7052;51.050;3.716;2023-02-26T11:50:34;6.00;41.20
13960;DHT22;7052;51.050;3.716;2023-02-26T11:53:05;6.00;41.60
13960;DHT22;7052;51.050;3.716;2023-02-26T11:55:36;6.10;41.00
13960;DHT22;7052;51.050;3.716;2023-02-26T11:58:15;6.20;40.60
13960;DHT22;7052;51.050;3.716;2023-02-26T12:00:42;6.20;40.40
13960;DHT22;7052;51.050;3.716;2023-02-26T12:03:15;6.30;40.60
13960;DHT22;7052;51.050;3.716;2023-02-26T12:05:44;6.40;41.20
13960;DHT22;7052;51.050;3.716;2023-02-26T12:08:17;6.40;41.30
13960;DHT22;7052;51.050;3.716;2023-02-26T12:10:57;6.50;40.60
13960;DHT22;7052;51.050;3.716;2023-02-26T12:13:31;6.60;40.60
13960;DHT22;7052;51.050;3.716;2023-02-26T12:16:04;6.60;40.80
13960;DHT22;7052;51.050;3.716;2023-02-26T12:18:43;6.60;40.60
13960;DHT22;7052;51.050;3.716;2023-02-26T12:21:40;6.70;39.70
13960;DHT22;7052;51.050;3.716;2023-02-26T12:24:27;6.70;39.00
13960;DHT22;7052;51.050;3.716;2023-02-26T12:27:01;6.60;38.70
13960;DHT22;7052;51.050;3.716;2023-02-26T12:29:51;6.60;38.30
13960;DHT22;7052;51.050;3.716;2023-02-26T12:32:35;6.60;38.00
13960;DHT22;7052;51.050;3.716;2023-02-26T12:35:32;6.60;37.30
13960;DHT22;7052;51.050;3.716;2023-02-26T12:38:23;6.50;37.60
13960;DHT22;7052;51.050;3.716;2023-02-26T12:41:05;6.50;38.10
13960;DHT22;7052;51.050;3.716;2023-02-26T12:43:44;6.50;38.70
13960;DHT22;7052;51.050;3.716;2023-02-26T12:46:25;6.40;39.00
13960;DHT22;7052;51.050;3.716;2023-02-26T12:49:20;6.50;39.10
13960;DHT22;7052;51.050;3.716;2023-02-26T12:52:05;6.50;39.20
13960;DHT22;7052;51.050;3.716;2023-02-26T12:54:59;6.40;39.00
13960;DHT22;7052;51.050;3.716;2023-02-26T12:58:04;6.40;38.80
13960;DHT22;7052;51.050;3.716;2023-02-26T13:01:02;6.50;39.40
13960;DHT22;7052;51.050;3.716;2023-02-26T13:04:02;6.60;39.80
13960;DHT22;7052;51.050;3.716;2023-02-26T13:06:51;6.60;39.80
13960;DHT22;7052;51.050;3.716;2023-02-26T13:09:33;6.60;39.50
13960;DHT22;7052;51.050;3.716;2023-02-26T13:12:16;6.70;39.20
13960;DHT22;7052;51.050;3.716;2023-02-26T13:14:59;6.80;40.20
13960;DHT22;7052;51.050;3.716;2023-02-26T13:17:33;6.80;40.20
13960;DHT22;7052;51.050;3.716;2023-02-26T13:20:09;6.80;40.30
13960;DHT22;7052;51.050;3.716;2023-02-26T13:22:40;6.90;40.00
13960;DHT22;7052;51.050;3.716;2023-02-26T13:25:16;7.00;40.20
13960;DHT22;7052;51.050;3.716;2023-02-26T13:27:48;7.00;40.20
13960;DHT22;7052;51.050;3.716;2023-02-26T13:30:20;6.90;40.60
13960;DHT22;7052;51.050;3.716;2023-02-26T13:32:56;6.90;40.80
13960;DHT22;7052;51.050;3.716;2023-02-26T13:35:27;6.90;41.00
13960;DHT22;7052;51.050;3.716;2023-02-26T13:37:56;6.90;41.60
13960;DHT22;7052;51.050;3.716;2023-02-26T13:40:40;6.90;41.70
13960;DHT22;7052;51.050;3.716;2023-02-26T13:43:18;7.00;41.60
13960;DHT22;7052;51.050;3.716;2023-02-26T13:45:54;7.00;40.90
13960;DHT22;7052;51.050;3.716;2023-02-26T13:48:32;7.00;41.20
13960;DHT22;7052;51.050;3.716;2023-02-26T13:51:04;6.90;41.40
13960;DHT22;7052;51.050;3.716;2023-02-26T13:53:50;7.10;42.20
13960;DHT22;7052;51.050;3.716;2023-02-26T13:56:22;7.10;42.50
13960;DHT22;7052;51.050;3.716;2023-02-26T13:59:25;7.10;42.50
13960;DHT22;7052;51.050;3.716;2023-02-26T14:01:56;7.00;42.20
13960;DHT22;7052;51.050;3.716;2023-02-26T14:04:25;6.90;42.40
13960;DHT22;7052;51.050;3.716;2023-02-26T14:06:53;6.90;42.70
13960;DHT22;7052;51.050;3.716;2023-02-26T14:09:43;6.90;42.80
13960;DHT22;7052;51.050;3.716;2023-02-26T14:12:35;7.00;42.40
13960;DHT22;7052;51.050;3.716;2023-02-26T14:15:42;7.20;42.30
13960;DHT22;7052;51.050;3.716;2023-02-26T14:18:20;7.30;42.10
13960;DHT22;7052;51.050;3.716;2023-02-26T14:20:50;7.30;41.90
13960;DHT22;7052;51.050;3.716;2023-02-26T14:23:33;7.20;42.60
13960;DHT22;7052;51.050;3.716;2023-02-26T14:26:11;7.20;43.00
13960;DHT22;7052;51.050;3.716;2023-02-26T14:28:43;7.10;42.40
13960;DHT22;7052;51.050;3.716;2023-02-26T14:31:17;7.00;42.50
13960;DHT22;7052;51.050;3.716;2023-02-26T14:33:58;7.00;44.10
13960;DHT22;7052;51.050;3.716;2023-02-26T14:36:34;6.90;44.20
13960;DHT22;7052;51.050;3.716;2023-02-26T14:39:05;6.90;44.60
13960;DHT22;7052;51.050;3.716;2023-02-26T14:41:37;6.80;44.60
13960;DHT22;7052;51.050;3.716;2023-02-26T14:44:10;6.70;44.40
13960;DHT22;7052;51.050;3.716;2023-02-26T14:46:42;6.70;44.30
13960;DHT22;7052;51.050;3.716;2023-02-26T14:49:16;6.70;44.10
13960;DHT22;7052;51.050;3.716;2023-02-26T14:51:51;6.80;44.00
13960;DHT22;7052;51.050;3.716;2023-02-26T14:54:33;6.80;44.50
13960;DHT22;7052;51.050;3.716;2023-02-26T14:57:12;6.80;44.20
13960;DHT22;7052;51.050;3.716;2023-02-26T14:59:54;6.70;44.00
13960;DHT22;7052;51.050;3.716;2023-02-26T15:02:30;6.80;44.00
13960;DHT22;7052;51.050;3.716;2023-02-26T15:05:13;6.80;43.70
13960;DHT22;7052;51.050;3.716;2023-02-26T15:08:18;6.90;43.30
13960;DHT22;7052;51.050;3.716;2023-02-26T15:11:08;6.90;42.90
13960;DHT22;7052;51.050;3.716;2023-02-26T15:13:51;6.90;42.00
13960;DHT22;7052;51.050;3.716;2023-02-26T15:16:33;6.80;42.30
13960;DHT22;7052;51.050;3.716;2023-02-26T15:19:20;6.80;42.80
13960;DHT22;7052;51.050;3.716;2023-02-26T15:21:59;6.80;43.50
13960;DHT22;7052;51.050;3.716;2023-02-26T15:24:29;6.80;43.80
13960;DHT22;7052;51.050;3.716;2023-02-26T15:27:00;6.80;43.80
13960;DHT22;7052;51.050;3.716;2023-02-26T15:29:30;6.80;44.50
13960;DHT22;7052;51.050;3.716;2023-02-26T15:31:59;6.80;45.10
13960;DHT22;7052;51.050;3.716;2023-02-26T15:34:29;7.10;45.90
13960;DHT22;7052;51.050;3.716;2023-02-26T15:36:58;6.80;46.20
13960;DHT22;7052;51.050;3.716;2023-02-26T15:39:27;6.70;45.90
13960;DHT22;7052;51.050;3.716;2023-02-26T15:41:54;6.70;46.20
13960;DHT22;7052;51.050;3.716;2023-02-26T15:44:24;6.60;46.20
13960;DHT22;7052;51.050;3.716;2023-02-26T15:46:54;6.60;45.90
13960;DHT22;7052;51.050;3.716;2023-02-26T15:49:25;6.50;46.00
13960;DHT22;7052;51.050;3.716;2023-02-26T15:51:58;6.40;46.60
13960;DHT22;7052;51.050;3.716;2023-02-26T15:54:32;6.40;47.00
13960;DHT22;7052;51.050;3.716;2023-02-26T15:57:00;6.40;47.40
13960;DHT22;7052;51.050;3.716;2023-02-26T15:59:30;6.30;47.80
13960;DHT22;7052;51.050;3.716;2023-02-26T16:02:00;6.30;47.80
13960;DHT22;7052;51.050;3.716;2023-02-26T16:04:27;6.20;47.90
13960;DHT22;7052;51.050;3.716;2023-02-26T16:06:58;6.20;48.10
13960;DHT22;7052;51.050;3.716;2023-02-26T16:09:29;6.20;48.10
13960;DHT22;7052;51.050;3.716;2023-02-26T16:12:00;6.20;47.70
13960;DHT22;7052;51.050;3.716;2023-02-26T16:14:32;6.10;47.40
13960;DHT22;7052;51.050;3.716;2023-02-26T16:17:00;6.10;47.40
13960;DHT22;7052;51.050;3.716;2023-02-26T16:19:32;6.00;47.30
13960;DHT22;7052;51.050;3.716;2023-02-26T16:22:06;6.00;47.70
13960;DHT22;7052;51.050;3.716;2023-02-26T16:24:34;6.00;48.40
13960;DHT22;7052;51.050;3.716;2023-02-26T16:27:03;5.90;48.90
13960;DHT22;7052;51.050;3.716;2023-02-26T16:29:34;5.90;49.10
13960;DHT22;7052;51.050;3.716;2023-02-26T16:32:03;6.00;49.50
13960;DHT22;7052;51.050;3.716;2023-02-26T16:34:34;5.90;49.70
13960;DHT22;7052;51.050;3.716;2023-02-26T16:37:21;5.90;49.60